Time;durP1;ratioP1;P1;durP2;ratioP2;P2;SDS_P1;SDS_P2;PMS_P1;PMS_P2;Temp;Humidity;BMP_temperature;BMP_pressure;BME280_temperature;BME280_humidity;BME280_pressure;Samples;Min_cycle;Max_cycle;Signal;HPM_P1;HPM_P2
2022/02/15 00:02:17;;;;;;;4.00;1.33;;;6.50;99.90;;;;;;6121710;23;20192;-77
2022/02/15 00:04:43;;;;;;;5.05;1.33;;;6.50;99.90;;;;;;6120978;23;20181;-78
2022/02/15 00:07:08;;;;;;;3.45;1.30;;;6.50;99.90;;;;;;6121584;23;20153;-78
2022/02/15 00:09:34;;;;;;;3.13;1.17;;;6.50;99.90;;;;;;6145713;23;20072;-77
2022/02/15 00:12:00;;;;;;;4.43;0.93;;;6.50;99.90;;;;;;6145802;23;20005;-77
2022/02/15 00:14:25;;;;;;;4.15;0.85;;;6.50;99.90;;;;;;6146145;23;20008;-77
2022/02/15 00:16:51;;;;;;;2.17;0.95;;;6.40;99.90;;;;;;6145829;23;20009;-77
2022/02/15 00:19:17;;;;;;;4.30;0.93;;;6.30;99.90;;;;;;6121981;23;20136;-77
2022/02/15 00:21:43;;;;;;;4.13;1.08;;;6.20;99.90;;;;;;6145218;23;20331;-78
2022/02/15 00:24:10;;;;;;;2.83;0.90;;;6.20;99.90;;;;;;6121026;23;20139;-77
2022/02/15 00:26:36;;;;;;;3.47;0.80;;;6.20;99.90;;;;;;6146498;23;20063;-78
2022/02/15 00:29:01;;;;;;;2.67;0.60;;;6.20;99.90;;;;;;6121359;23;20021;-77
2022/02/15 00:31:28;;;;;;;3.78;0.60;;;6.10;99.90;;;;;;6121428;23;20335;-77
2022/02/15 00:33:54;;;;;;;1.60;0.50;;;6.10;99.90;;;;;;6121275;23;20037;-77
2022/02/15 00:36:19;;;;;;;3.33;0.60;;;6.10;99.90;;;;;;6145923;23;20017;-77
2022/02/15 00:38:46;;;;;;;2.83;0.70;;;6.10;99.90;;;;;;6145833;23;20472;-77
2022/02/15 00:41:13;;;;;;;1.67;0.50;;;6.10;99.90;;;;;;6146558;23;20006;-77
2022/02/15 00:43:38;;;;;;;1.75;0.50;;;6.10;99.90;;;;;;6145177;23;20010;-77
2022/02/15 00:46:04;;;;;;;4.13;0.90;;;6.10;99.90;;;;;;6145937;23;20012;-79
2022/02/15 00:48:30;;;;;;;1.40;0.55;;;6.20;99.90;;;;;;6147253;23;20080;-76
2022/02/15 00:50:56;;;;;;;1.80;0.60;;;6.10;99.90;;;;;;6145826;23;20013;-79
2022/02/15 00:53:23;;;;;;;2.50;0.60;;;6.20;99.90;;;;;;6121424;23;20040;-77
2022/02/15 00:55:49;;;;;;;1.88;0.70;;;6.20;99.90;;;;;;6120641;23;20092;-79
2022/02/15 00:58:15;;;;;;;4.07;0.90;;;6.20;99.90;;;;;;6123002;23;20422;-77
2022/02/15 01:00:41;;;;;;;2.30;1.00;;;6.20;99.90;;;;;;6123497;23;20010;-77
2022/02/15 01:03:07;;;;;;;3.97;1.30;;;6.10;99.90;;;;;;6124001;23;20037;-77
2022/02/15 01:05:32;;;;;;;2.80;1.08;;;6.20;99.90;;;;;;6123143;23;20021;-77
2022/02/15 01:07:58;;;;;;;3.28;0.80;;;6.20;99.90;;;;;;6123950;23;20017;-77
2022/02/15 01:10:24;;;;;;;3.05;1.20;;;6.20;99.90;;;;;;6148738;23;20021;-78
2022/02/15 01:12:50;;;;;;;3.53;1.23;;;6.20;99.90;;;;;;6122936;23;20013;-78
2022/02/15 01:15:18;;;;;;;1.75;0.90;;;6.20;99.90;;;;;;6150022;23;20006;-77
2022/02/15 01:17:45;;;;;;;2.83;0.90;;;6.20;99.90;;;;;;6123318;23;20016;-78
2022/02/15 01:20:11;;;;;;;4.43;1.10;;;6.20;99.90;;;;;;6147619;23;20017;-77
2022/02/15 01:22:38;;;;;;;2.58;1.00;;;6.20;99.90;;;;;;6147181;23;20013;-78
2022/02/15 01:25:05;;;;;;;1.90;0.70;;;6.20;99.90;;;;;;6098782;23;20435;-77
2022/02/15 01:27:30;;;;;;;2.80;0.80;;;6.20;99.90;;;;;;6098171;23;20029;-77
2022/02/15 01:29:57;;;;;;;3.17;1.08;;;6.20;99.90;;;;;;6098589;23;20443;-78
2022/02/15 01:32:23;;;;;;;3.17;1.33;;;6.20;99.90;;;;;;6098464;23;20036;-78
2022/02/15 01:34:49;;;;;;;2.03;0.70;;;6.10;99.90;;;;;;6097349;23;20033;-77
2022/02/15 01:37:15;;;;;;;2.78;0.70;;;6.20;99.90;;;;;;6098896;23;20423;-80
2022/02/15 01:39:41;;;;;;;2.30;0.68;;;6.10;99.90;;;;;;6148582;23;20072;-77
2022/02/15 01:42:07;;;;;;;1.52;0.52;;;6.10;99.90;;;;;;6123298;23;20068;-77
2022/02/15 01:44:36;;;;;;;1.67;0.70;;;6.10;99.90;;;;;;6097682;23;20354;-77
2022/02/15 01:47:03;;;;;;;2.88;0.73;;;6.10;99.90;;;;;;6123014;23;20088;-77
2022/02/15 01:49:29;;;;;;;3.00;0.95;;;6.10;99.90;;;;;;6121770;23;20318;-78
2022/02/15 01:51:55;;;;;;;4.55;0.80;;;6.00;99.90;;;;;;6122770;23;20088;-77
2022/02/15 01:54:21;;;;;;;2.22;0.70;;;6.00;99.90;;;;;;6098479;23;20092;-78
2022/02/15 01:56:47;;;;;;;2.33;1.00;;;5.90;99.90;;;;;;6122144;23;20060;-77
2022/02/15 01:59:13;;;;;;;5.50;1.60;;;5.90;99.90;;;;;;6098555;23;20426;-77
2022/02/15 02:01:39;;;;;;;2.90;1.63;;;5.90;99.90;;;;;;6097657;23;20044;-78
2022/02/15 02:05:47;;;;;;;3.17;1.02;;;5.90;99.90;;;;;;6123203;23;20009;-77
2022/02/15 02:06:57;;;;;;;2.30;0.90;;;5.90;99.90;;;;;;6122772;23;20446;-77
2022/02/15 02:09:25;;;;;;;3.15;0.82;;;5.90;99.90;;;;;;6098483;23;20032;-77
2022/02/15 02:11:50;;;;;;;3.70;1.55;;;5.90;99.90;;;;;;6121757;23;20010;-77
2022/02/15 02:14:36;;;;;;;2.97;1.13;;;5.80;99.90;;;;;;6125939;23;20455;-77
2022/02/15 02:17:02;;;;;;;3.08;0.95;;;5.80;99.90;;;;;;6097329;23;20063;-78
2022/02/15 02:19:31;;;;;;;3.45;1.08;;;5.80;99.90;;;;;;6099573;23;20053;-78
2022/02/15 02:22:01;;;;;;;2.50;0.70;;;5.80;99.90;;;;;;6122484;23;20013;-78
2022/02/15 02:24:26;;;;;;;2.13;0.80;;;5.80;99.90;;;;;;6141717;23;20072;-78
2022/02/15 02:26:52;;;;;;;1.98;0.70;;;5.80;99.90;;;;;;6146705;23;20391;-77
2022/02/15 02:29:18;;;;;;;2.70;0.80;;;5.80;99.90;;;;;;6122988;23;20022;-77
2022/02/15 02:31:45;;;;;;;1.70;0.60;;;5.80;99.90;;;;;;6122171;23;20005;-77
2022/02/15 02:34:13;;;;;;;2.50;0.77;;;5.70;99.90;;;;;;6122896;23;20083;-77
2022/02/15 02:36:48;;;;;;;3.08;0.70;;;5.80;99.90;;;;;;6122945;23;20235;-77
2022/02/15 02:39:16;;;;;;;2.13;0.60;;;5.70;99.90;;;;;;6122837;23;20013;-78
2022/02/15 02:41:43;;;;;;;2.45;0.60;;;5.70;99.90;;;;;;6122501;23;20063;-77
2022/02/15 02:44:09;;;;;;;4.40;0.80;;;5.70;99.90;;;;;;6146557;23;20005;-78
2022/02/15 02:46:35;;;;;;;2.28;0.68;;;5.70;99.90;;;;;;6121386;23;20016;-79
2022/02/15 02:49:01;;;;;;;3.30;0.52;;;5.70;99.90;;;;;;6122405;23;20390;-78
2022/02/15 02:51:29;;;;;;;3.83;0.60;;;5.70;99.90;;;;;;6122996;23;20009;-77
2022/02/15 02:53:54;;;;;;;1.80;0.77;;;5.60;99.90;;;;;;6121861;23;20018;-78
2022/02/15 02:56:21;;;;;;;1.60;0.50;;;5.70;99.90;;;;;;6122600;23;20448;-77
2022/02/15 02:58:48;;;;;;;1.88;0.70;;;5.70;99.90;;;;;;6122493;23;20049;-77
2022/02/15 03:01:13;;;;;;;3.78;0.75;;;5.60;99.90;;;;;;6146802;23;20005;-78
2022/02/15 03:03:42;;;;;;;3.90;0.70;;;5.60;99.90;;;;;;6122025;23;20017;-77
2022/02/15 03:06:09;;;;;;;1.73;0.60;;;5.60;99.90;;;;;;6146935;23;20009;-77
2022/02/15 03:08:35;;;;;;;4.20;0.90;;;5.60;99.90;;;;;;6146690;23;20036;-78
2022/02/15 03:11:00;;;;;;;1.95;0.63;;;5.60;99.90;;;;;;6146477;23;20075;-77
2022/02/15 03:13:35;;;;;;;1.30;0.50;;;5.60;99.90;;;;;;6146281;23;20016;-77
2022/02/15 03:16:04;;;;;;;2.33;0.70;;;5.60;99.90;;;;;;6122632;23;20826;-77
2022/02/15 03:18:30;;;;;;;2.47;0.68;;;5.50;99.90;;;;;;6121110;23;20431;-77
2022/02/15 03:21:02;;;;;;;2.60;0.70;;;5.50;99.90;;;;;;6123567;23;20009;-77
2022/02/15 03:23:28;;;;;;;2.58;0.73;;;5.50;99.90;;;;;;6122045;23;20021;-77
2022/02/15 03:25:53;;;;;;;3.33;0.80;;;5.50;99.90;;;;;;6146751;23;20045;-82
2022/02/15 03:28:22;;;;;;;2.17;0.70;;;5.50;99.90;;;;;;6122645;23;20037;-77
2022/02/15 03:30:47;;;;;;;2.25;0.68;;;5.50;99.90;;;;;;6121072;23;20025;-77
2022/02/15 03:33:13;;;;;;;3.92;0.73;;;5.50;99.90;;;;;;6121867;23;20013;-78
2022/02/15 03:35:40;;;;;;;3.00;0.63;;;5.50;99.90;;;;;;6146123;23;20096;-77
2022/02/15 03:38:09;;;;;;;3.03;0.65;;;5.50;99.90;;;;;;6123109;23;20016;-77
2022/02/15 03:43:25;;;;;;;1.40;0.50;;;5.50;99.90;;;;;;6145910;23;20005;-77
2022/02/15 03:45:52;;;;;;;2.75;0.60;;;5.50;99.90;;;;;;6121542;23;20050;-77
2022/02/15 03:48:29;;;;;;;1.83;0.47;;;5.50;99.90;;;;;;6123921;23;20009;-77
2022/02/15 03:50:55;;;;;;;1.20;0.45;;;5.40;99.90;;;;;;6146423;23;20025;-77
2022/02/15 03:53:22;;;;;;;3.17;0.80;;;5.40;99.90;;;;;;6121222;23;20485;-78
2022/02/15 03:55:48;;;;;;;2.55;0.60;;;5.40;99.90;;;;;;6121242;23;20009;-77
2022/02/15 03:58:14;;;;;;;3.53;0.70;;;5.30;99.90;;;;;;6122247;23;20020;-77
2022/02/15 04:00:41;;;;;;;1.92;0.65;;;5.40;99.90;;;;;;6121582;23;20016;-77
2022/02/15 04:03:21;;;;;;;2.42;0.60;;;5.40;99.90;;;;;;6124649;23;20442;-77
2022/02/15 04:05:48;;;;;;;2.85;0.57;;;5.40;99.90;;;;;;6121486;23;20080;-77
2022/02/15 04:08:15;;;;;;;2.72;0.65;;;5.40;99.90;;;;;;6121831;23;20047;-77
2022/02/15 04:10:41;;;;;;;2.33;0.77;;;5.40;99.90;;;;;;6121418;23;20041;-77
2022/02/15 04:13:08;;;;;;;2.10;0.70;;;5.30;99.90;;;;;;6145234;23;20757;-77
2022/02/15 04:15:34;;;;;;;3.47;0.60;;;5.40;99.90;;;;;;6121466;23;20017;-78
2022/02/15 04:18:00;;;;;;;3.45;0.60;;;5.40;99.90;;;;;;6148318;23;20101;-77
2022/02/15 04:20:26;;;;;;;2.35;0.70;;;5.30;99.90;;;;;;6146085;23;20109;-78
2022/02/15 04:22:52;;;;;;;4.82;0.77;;;5.30;99.90;;;;;;6120920;23;20096;-77
2022/02/15 04:25:18;;;;;;;2.53;0.80;;;5.30;99.90;;;;;;6121536;23;20100;-78
2022/02/15 04:27:45;;;;;;;2.08;0.80;;;5.30;99.90;;;;;;6097198;23;20009;-77
2022/02/15 04:30:11;;;;;;;2.08;0.80;;;5.30;99.90;;;;;;6097182;23;20024;-77
2022/02/15 04:32:39;;;;;;;1.67;0.60;;;5.30;99.90;;;;;;6097070;23;20092;-78
2022/02/15 04:35:08;;;;;;;2.10;0.70;;;5.30;99.90;;;;;;6121416;23;20013;-78
2022/02/15 04:37:34;;;;;;;1.55;0.70;;;5.30;99.90;;;;;;6096782;23;20014;-77
2022/02/15 04:40:00;;;;;;;2.55;0.60;;;5.30;99.90;;;;;;6097422;23;20441;-79
2022/02/15 04:42:26;;;;;;;3.10;0.60;;;5.30;99.90;;;;;;6097020;23;20076;-77
2022/02/15 04:44:55;;;;;;;2.60;0.60;;;5.30;99.90;;;;;;6097659;23;20021;-78
2022/02/15 04:47:30;;;;;;;3.90;0.90;;;5.30;99.90;;;;;;6121587;23;20060;-78
2022/02/15 04:49:56;;;;;;;2.90;0.73;;;5.30;99.90;;;;;;6097166;23;20453;-77
2022/02/15 04:52:23;;;;;;;2.10;0.93;;;5.30;99.90;;;;;;6097427;23;20312;-77
2022/02/15 04:54:48;;;;;;;3.72;1.00;;;5.30;99.90;;;;;;6096689;23;20020;-78
2022/02/15 04:57:14;;;;;;;2.45;0.75;;;5.30;99.90;;;;;;6096532;23;20020;-77
2022/02/15 04:59:42;;;;;;;2.85;0.80;;;5.30;99.90;;;;;;6121306;23;20009;-77
2022/02/15 05:02:14;;;;;;;3.53;0.80;;;5.30;99.90;;;;;;6099067;23;20001;-77
2022/02/15 05:04:49;;;;;;;3.72;0.93;;;5.30;99.90;;;;;;6096711;23;20048;-77
2022/02/15 05:07:18;;;;;;;3.90;1.10;;;5.30;99.90;;;;;;6096952;23;20014;-77
2022/02/15 05:09:45;;;;;;;4.45;1.25;;;5.40;99.90;;;;;;6096841;23;20134;-77
2022/02/15 05:12:14;;;;;;;2.40;0.88;;;5.40;99.90;;;;;;6097234;23;20010;-78
2022/02/15 05:14:40;;;;;;;3.53;1.13;;;5.30;99.90;;;;;;6096230;23;20156;-77
2022/02/15 05:17:07;;;;;;;2.40;0.80;;;5.40;99.90;;;;;;6096765;23;20036;-78
2022/02/15 05:19:34;;;;;;;2.40;0.93;;;5.40;99.90;;;;;;6096671;23;20017;-77
2022/02/15 05:22:03;;;;;;;4.70;0.93;;;5.40;99.90;;;;;;6097339;23;20009;-77
2022/02/15 05:24:39;;;;;;;3.22;1.20;;;5.40;99.90;;;;;;6119613;23;20371;-80
2022/02/15 05:27:06;;;;;;;4.47;1.45;;;5.50;99.90;;;;;;6121027;23;20015;-79
2022/02/15 05:29:39;;;;;;;2.50;0.60;;;5.50;99.90;;;;;;6145383;23;20433;-77
2022/02/15 05:32:26;;;;;;;4.50;1.00;;;5.50;99.90;;;;;;6125384;23;20032;-78
2022/02/15 05:34:54;;;;;;;4.55;1.27;;;5.50;99.90;;;;;;6121737;23;20120;-77
2022/02/15 05:37:21;;;;;;;3.83;1.70;;;5.50;99.90;;;;;;6120933;23;20040;-77
2022/02/15 05:39:49;;;;;;;3.53;1.65;;;5.60;99.90;;;;;;6121893;23;20435;-77
2022/02/15 05:42:24;;;;;;;3.13;1.58;;;5.60;99.90;;;;;;6123933;23;20044;-78
2022/02/15 05:44:50;;;;;;;5.35;2.90;;;5.50;99.90;;;;;;6123064;23;20017;-77
2022/02/15 05:47:16;;;;;;;4.65;2.78;;;5.60;99.90;;;;;;6123341;23;20064;-77
2022/02/15 05:52:42;;;;;;;5.78;3.75;;;5.60;99.90;;;;;;6062560;23;20094;-80
2022/02/15 05:55:14;;;;;;;6.28;3.25;;;5.70;99.90;;;;;;6063623;23;20025;-77
2022/02/15 05:57:42;;;;;;;7.60;4.65;;;5.60;99.90;;;;;;6038229;23;20049;-77
2022/02/15 06:00:14;;;;;;;6.05;3.60;;;5.60;99.90;;;;;;6063666;23;20129;-77
2022/02/15 06:02:48;;;;;;;7.65;3.47;;;5.70;99.90;;;;;;6064180;23;20130;-77
2022/02/15 06:05:16;;;;;;;8.60;4.47;;;5.60;99.90;;;;;;6062678;23;20018;-77
2022/02/15 06:07:48;;;;;;;7.75;4.63;;;5.70;99.90;;;;;;6063363;23;20073;-77
2022/02/15 06:10:20;;;;;;;9.85;4.90;;;5.70;99.90;;;;;;6086858;23;20019;-77
2022/02/15 06:12:48;;;;;;;7.53;4.82;;;5.70;99.90;;;;;;6061640;23;20017;-77
2022/02/15 06:15:14;;;;;;;8.48;5.20;;;5.60;99.90;;;;;;6058178;23;20014;-78
2022/02/15 06:18:00;;;;;;;7.90;5.15;;;5.70;99.90;;;;;;6070690;23;20021;-77
2022/02/15 06:20:27;;;;;;;9.82;5.05;;;5.70;99.90;;;;;;6062505;23;20379;-78
2022/02/15 06:22:54;;;;;;;10.93;6.55;;;5.70;99.90;;;;;;6085598;23;20026;-78
2022/02/15 06:25:20;;;;;;;8.43;5.53;;;5.70;99.90;;;;;;6038311;23;20371;-77
2022/02/15 06:27:56;;;;;;;9.55;5.28;;;5.70;99.90;;;;;;6059207;23;20057;-77
2022/02/15 06:30:50;;;;;;;7.20;4.40;;;5.70;99.90;;;;;;6126992;23;20115;-77
2022/02/15 06:33:21;;;;;;;10.25;5.28;;;5.70;99.90;;;;;;6122385;23;20014;-78
2022/02/15 06:35:48;;;;;;;8.32;4.45;;;5.70;99.90;;;;;;6097650;23;20335;-77
2022/02/15 06:38:14;;;;;;;7.43;4.47;;;5.80;99.90;;;;;;6121228;23;20507;-77
2022/02/15 06:40:42;;;;;;;9.02;4.38;;;5.80;99.90;;;;;;6146086;23;20204;-77
2022/02/15 06:43:14;;;;;;;7.30;4.25;;;5.80;99.90;;;;;;6122668;23;20013;-77
2022/02/15 06:45:40;;;;;;;9.55;6.03;;;5.80;99.90;;;;;;6121581;23;20048;-77
2022/02/15 06:48:07;;;;;;;8.73;5.32;;;5.80;99.90;;;;;;6146432;23;20013;-78
2022/02/15 06:50:35;;;;;;;10.35;6.65;;;5.90;99.90;;;;;;6121902;23;20021;-77
2022/02/15 06:53:19;;;;;;;13.52;8.55;;;5.90;99.90;;;;;;6144314;23;20450;-78
2022/02/15 06:56:17;;;;;;;13.95;9.02;;;5.90;99.90;;;;;;6124839;23;20036;-77
2022/02/15 06:58:47;;;;;;;;;;;6.00;99.90;;;;;;6145553;23;20012;-77
2022/02/15 07:01:18;;;;;;;11.07;7.72;;;5.90;99.90;;;;;;6146440;23;19908;-77
2022/02/15 07:03:46;;;;;;;11.45;7.78;;;6.00;99.90;;;;;;6121373;23;20006;-77
2022/02/15 07:06:11;;;;;;;13.23;6.63;;;6.00;99.90;;;;;;6146045;23;20024;-77
2022/02/15 07:08:37;;;;;;;13.07;7.35;;;6.00;99.90;;;;;;6120601;23;20050;-77
2022/02/15 07:11:04;;;;;;;7.28;5.35;;;6.00;99.90;;;;;;6122295;23;20025;-77
2022/02/15 07:13:33;;;;;;;8.25;5.68;;;6.00;99.90;;;;;;6121671;23;20013;-77
2022/02/15 07:16:02;;;;;;;11.77;7.40;;;6.00;99.90;;;;;;6145523;23;20010;-77
2022/02/15 07:18:28;;;;;;;10.88;6.60;;;6.00;99.90;;;;;;6145793;23;20087;-77
2022/02/15 07:21:25;;;;;;;10.63;6.28;;;6.10;99.90;;;;;;6127434;23;20114;-76
2022/02/15 07:24:09;;;;;;;14.45;9.18;;;6.00;99.90;;;;;;6145647;23;20036;-77
2022/02/15 07:27:01;;;;;;;14.30;8.13;;;6.10;99.90;;;;;;6127207;23;20021;-77
2022/02/15 07:29:33;;;;;;;13.02;7.47;;;6.10;99.90;;;;;;6120909;23;20075;-77
2022/02/15 07:32:05;;;;;;;10.77;7.15;;;6.10;99.90;;;;;;6145750;23;20017;-77
2022/02/15 07:34:30;;;;;;;13.38;6.63;;;6.10;99.90;;;;;;6112938;23;20128;-77
2022/02/15 07:36:56;;;;;;;11.63;6.70;;;6.10;99.90;;;;;;6118686;23;20013;-77
2022/02/15 07:39:22;;;;;;;9.02;5.82;;;6.10;99.90;;;;;;6118703;23;20134;-77
2022/02/15 07:41:49;;;;;;;7.70;5.72;;;6.20;99.90;;;;;;6144536;23;20017;-77
2022/02/15 07:44:16;;;;;;;9.95;5.57;;;6.20;99.90;;;;;;6119054;23;20068;-77
2022/02/15 07:46:46;;;;;;;13.38;7.53;;;6.20;99.90;;;;;;6145552;23;20013;-77
2022/02/15 07:49:13;;;;;;;13.17;6.77;;;6.20;99.90;;;;;;6114197;23;20443;-77
2022/02/15 07:51:39;;;;;;;10.02;5.78;;;6.20;99.90;;;;;;6142820;23;20327;-77
2022/02/15 07:54:05;;;;;;;13.75;8.65;;;6.20;99.90;;;;;;6143222;23;20040;-77
2022/02/15 07:56:30;;;;;;;12.77;7.07;;;6.20;99.90;;;;;;6118287;23;20010;-78
2022/02/15 07:58:56;;;;;;;11.32;6.38;;;6.20;99.90;;;;;;6143484;23;20042;-77
2022/02/15 08:01:21;;;;;;;16.90;8.60;;;6.20;99.90;;;;;;6117666;23;20040;-77
2022/02/15 08:03:47;;;;;;;13.98;9.35;;;6.30;99.90;;;;;;6118436;23;20005;-77
2022/02/15 08:06:14;;;;;;;11.35;6.75;;;6.30;99.90;;;;;;6118992;23;20438;-77
2022/02/15 08:08:40;;;;;;;10.95;6.35;;;6.40;99.90;;;;;;6118294;23;20427;-77
2022/02/15 08:11:06;;;;;;;12.43;6.15;;;6.40;99.90;;;;;;6118183;23;20100;-77
2022/02/15 08:13:34;;;;;;;16.33;8.23;;;6.50;99.90;;;;;;6144915;23;20076;-78
2022/02/15 08:16:01;;;;;;;13.40;7.50;;;6.50;99.90;;;;;;6118644;23;20473;-78
2022/02/15 08:18:27;;;;;;;18.17;9.80;;;6.50;99.90;;;;;;6117951;23;20068;-78
2022/02/15 08:20:53;;;;;;;11.20;6.70;;;6.50;99.90;;;;;;6118248;23;20013;-78
2022/02/15 08:23:19;;;;;;;11.20;5.22;;;6.50;99.90;;;;;;6143627;23;20017;-78
2022/02/15 08:25:46;;;;;;;12.63;5.25;;;6.50;99.90;;;;;;6117099;23;20431;-77
2022/02/15 08:28:13;;;;;;;9.35;5.22;;;6.50;99.90;;;;;;6116495;23;20017;-78
2022/02/15 08:30:40;;;;;;;10.23;5.78;;;6.60;99.90;;;;;;6117488;23;20022;-78
2022/02/15 08:33:05;;;;;;;12.32;6.05;;;6.70;99.90;;;;;;6077382;23;20044;-78
2022/02/15 08:35:31;;;;;;;11.27;5.72;;;6.70;99.90;;;;;;6094613;23;20076;-78
2022/02/15 08:37:58;;;;;;;10.05;5.25;;;6.70;99.90;;;;;;6117954;23;20435;-78
2022/02/15 08:40:23;;;;;;;9.77;5.38;;;6.70;99.90;;;;;;6117910;23;20012;-78
2022/02/15 08:42:49;;;;;;;12.27;5.60;;;6.80;99.90;;;;;;6117553;23;20100;-78
2022/02/15 08:45:15;;;;;;;12.50;6.30;;;6.90;99.90;;;;;;6093331;23;20006;-77
2022/02/15 08:47:41;;;;;;;18.52;8.23;;;6.90;99.90;;;;;;6093832;23;20088;-76
2022/02/15 08:50:08;;;;;;;16.83;7.40;;;6.90;99.90;;;;;;6118146;23;20143;-77
2022/02/15 08:52:36;;;;;;;12.32;5.70;;;6.90;99.90;;;;;;6094264;23;20013;-77
2022/02/15 08:55:03;;;;;;;14.88;5.75;;;7.00;99.90;;;;;;6117902;23;20013;-80
2022/02/15 08:57:29;;;;;;;8.27;4.53;;;7.00;99.90;;;;;;6092402;23;20064;-78
2022/02/15 08:59:54;;;;;;;11.10;5.72;;;7.00;99.90;;;;;;6093940;23;20405;-79
2022/02/15 09:02:24;;;;;;;9.20;5.43;;;7.00;99.90;;;;;;6069482;23;20101;-79
2022/02/15 09:04:50;;;;;;;13.77;6.25;;;7.00;99.90;;;;;;6117002;23;20100;-78
2022/02/15 09:07:17;;;;;;;10.65;5.82;;;7.00;99.90;;;;;;6116897;23;20054;-78
2022/02/15 09:09:43;;;;;;;10.50;4.65;;;7.00;99.90;;;;;;6092949;23;20021;-78
2022/02/15 09:12:09;;;;;;;10.55;4.30;;;7.10;99.90;;;;;;6118089;23;20123;-78
2022/02/15 09:14:35;;;;;;;11.52;3.95;;;7.10;99.90;;;;;;6093206;23;20048;-79
2022/02/15 09:17:01;;;;;;;6.68;3.60;;;7.10;99.90;;;;;;6117550;23;20450;-79
2022/02/15 09:19:28;;;;;;;13.77;5.10;;;7.20;99.90;;;;;;6093877;23;20024;-78
2022/02/15 09:21:54;;;;;;;11.13;5.18;;;7.20;99.90;;;;;;6094061;23;20020;-78
2022/02/15 09:24:20;;;;;;;14.18;5.32;;;7.10;99.90;;;;;;6072382;23;1054822;-79
2022/02/15 09:26:47;;;;;;;10.70;5.40;;;7.00;99.90;;;;;;6145198;23;20087;-78
2022/02/15 09:29:13;;;;;;;8.70;4.25;;;6.90;99.90;;;;;;6120242;23;20359;-78
2022/02/15 09:31:38;;;;;;;8.48;4.28;;;6.90;99.90;;;;;;6120359;23;20018;-79
2022/02/15 09:34:06;;;;;;;11.55;4.82;;;7.00;99.90;;;;;;6101970;23;20429;-77
2022/02/15 09:36:32;;;;;;;8.23;4.43;;;6.90;99.90;;;;;;6136263;23;20315;-77
2022/02/15 09:38:58;;;;;;;7.35;3.17;;;7.00;99.90;;;;;;6145008;23;20016;-78
2022/02/15 09:41:24;;;;;;;7.65;3.45;;;7.20;99.90;;;;;;6119632;23;20013;-78
2022/02/15 09:43:50;;;;;;;7.80;3.33;;;7.60;99.90;;;;;;6119780;23;20383;-80
2022/02/15 09:46:16;;;;;;;7.22;4.15;;;8.00;99.90;;;;;;6145602;23;20357;-79
2022/02/15 09:48:43;;;;;;;10.73;5.32;;;8.20;99.90;;;;;;6144460;23;20013;-78
2022/02/15 09:51:10;;;;;;;10.43;4.78;;;8.10;99.90;;;;;;6120003;23;20021;-79
2022/02/15 09:53:37;;;;;;;7.63;3.92;;;8.00;99.90;;;;;;6144807;23;20036;-78
2022/02/15 09:56:05;;;;;;;9.30;4.72;;;8.40;99.90;;;;;;6120849;23;20068;-78
2022/02/15 09:58:30;;;;;;;6.07;3.05;;;8.50;99.90;;;;;;6146855;23;20084;-78
2022/02/15 10:01:00;;;;;;;8.50;3.80;;;8.60;99.90;;;;;;6144607;23;20013;-78
2022/02/15 10:03:25;;;;;;;8.10;4.28;;;8.50;99.90;;;;;;6120992;23;20041;-78
2022/02/15 10:05:51;;;;;;;5.85;2.90;;;8.30;99.90;;;;;;6147280;23;20029;-78
2022/02/15 10:08:31;;;;;;;4.88;1.85;;;8.50;99.90;;;;;;6145443;23;20009;-80
2022/02/15 10:11:17;;;;;;;8.40;2.72;;;8.40;99.90;;;;;;6146946;23;20031;-78
2022/02/15 10:13:46;;;;;;;5.40;1.88;;;8.10;99.90;;;;;;6146555;23;20092;-78
2022/02/15 10:16:14;;;;;;;5.03;1.50;;;8.10;99.90;;;;;;6145360;23;20087;-78
2022/02/15 10:18:41;;;;;;;3.10;1.38;;;8.10;99.90;;;;;;6120594;23;20106;-78
2022/02/15 10:21:13;;;;;;;11.40;3.15;;;8.00;99.90;;;;;;6145275;23;20473;-78
2022/02/15 10:23:39;;;;;;;7.60;1.90;;;7.80;99.90;;;;;;6120065;23;20347;-79
2022/02/15 10:26:07;;;;;;;7.05;1.85;;;7.70;99.90;;;;;;6121002;23;20104;-78
2022/02/15 10:28:33;;;;;;;6.47;1.85;;;7.70;99.90;;;;;;6144923;23;20060;-79
2022/02/15 10:31:01;;;;;;;6.65;1.70;;;7.70;99.90;;;;;;6120752;23;20458;-79
2022/02/15 10:33:28;;;;;;;6.82;1.50;;;7.70;99.90;;;;;;6137693;23;20018;-80
2022/02/15 10:36:06;;;;;;;5.43;1.00;;;7.70;99.90;;;;;;6101890;23;20499;-78
2022/02/15 10:38:35;;;;;;;4.85;1.00;;;8.10;99.90;;;;;;6143361;23;20107;-79
2022/02/15 10:41:09;;;;;;;6.88;1.08;;;8.10;99.90;;;;;;6145683;23;20018;-80
2022/02/15 10:43:54;;;;;;;4.07;0.77;;;8.00;99.90;;;;;;6119483;23;20010;-78
2022/02/15 10:46:29;;;;;;;7.55;1.00;;;8.10;99.90;;;;;;6119452;23;20005;-78
2022/02/15 10:48:55;;;;;;;3.22;0.57;;;7.90;99.90;;;;;;6120278;23;20507;-79
2022/02/15 10:51:22;;;;;;;3.55;0.47;;;7.70;99.90;;;;;;6145540;23;20041;-78
2022/02/15 10:53:48;;;;;;;2.42;0.57;;;7.80;99.90;;;;;;6119533;23;20439;-79
2022/02/15 10:56:14;;;;;;;2.83;0.30;;;8.00;99.90;;;;;;6144375;23;20013;-78
2022/02/15 10:58:40;;;;;;;4.00;0.50;;;8.40;99.90;;;;;;6119624;23;20085;-78
2022/02/15 11:01:09;;;;;;;3.05;0.60;;;8.60;99.90;;;;;;6119563;23;20005;-79
2022/02/15 11:03:37;;;;;;;3.60;0.40;;;8.50;99.90;;;;;;6146083;23;20036;-78
2022/02/15 11:06:04;;;;;;;7.72;0.80;;;8.40;99.90;;;;;;6119881;23;20414;-78
2022/02/15 11:08:32;;;;;;;4.43;0.70;;;8.10;99.90;;;;;;6143908;23;20013;-79
2022/02/15 11:11:11;;;;;;;7.03;0.60;;;8.30;99.90;;;;;;6144558;23;20315;-78
2022/02/15 11:13:38;;;;;;;5.70;0.55;;;8.40;99.90;;;;;;6143210;23;20017;-78
2022/02/15 11:16:11;;;;;;;4.35;0.60;;;8.90;99.90;;;;;;6146188;23;20002;-78
2022/02/15 11:18:36;;;;;;;3.58;0.40;;;9.10;99.90;;;;;;6143184;23;20010;-81
2022/02/15 11:21:04;;;;;;;3.30;0.30;;;9.40;99.90;;;;;;6144813;23;20322;-78
2022/02/15 11:23:35;;;;;;;5.50;0.38;;;9.60;99.90;;;;;;6143219;23;20402;-79
2022/02/15 11:26:06;;;;;;;5.00;0.30;;;9.50;99.90;;;;;;6146944;23;20025;-78
2022/02/15 11:28:32;;;;;;;3.03;0.25;;;9.50;99.90;;;;;;6142777;23;20022;-78
2022/02/15 11:31:00;;;;;;;2.30;0.25;;;9.50;99.90;;;;;;6100211;23;20328;-79
2022/02/15 11:33:37;;;;;;;1.80;0.25;;;9.40;99.90;;;;;;6129055;23;20245;-79
2022/02/15 11:36:07;;;;;;;2.95;0.20;;;9.60;99.90;;;;;;6124290;23;20430;-79
2022/02/15 11:38:34;;;;;;;3.28;0.28;;;9.40;99.90;;;;;;6078748;23;20595;-78
2022/02/15 11:41:04;;;;;;;1.67;0.30;;;9.00;99.90;;;;;;6141419;23;20020;-80
2022/02/15 11:43:31;;;;;;;2.10;0.30;;;8.70;99.90;;;;;;6143398;23;20009;-77
2022/02/15 11:45:59;;;;;;;2.85;0.40;;;8.70;99.90;;;;;;6144187;23;20133;-79
2022/02/15 11:48:39;;;;;;;4.10;0.98;;;8.30;99.90;;;;;;6144168;23;20009;-77
2022/02/15 11:51:20;;;;;;;3.63;0.28;;;8.10;99.90;;;;;;6120099;23;20402;-77
2022/02/15 11:53:47;;;;;;;1.70;0.30;;;8.50;99.90;;;;;;6119158;23;20006;-77
2022/02/15 11:56:19;;;;;;;1.67;0.20;;;8.80;99.90;;;;;;6144012;23;20017;-77
2022/02/15 11:58:52;;;;;;;3.20;0.20;;;9.00;99.90;;;;;;6118715;23;20097;-79
2022/02/15 12:01:29;;;;;;;1.83;0.30;;;9.10;99.90;;;;;;6143094;23;20018;-77
2022/02/15 12:03:57;;;;;;;2.08;0.45;;;9.10;99.90;;;;;;6143334;23;20441;-77
2022/02/15 12:06:37;;;;;;;1.50;0.30;;;9.20;99.90;;;;;;6143840;23;20356;-80
2022/02/15 12:09:03;;;;;;;1.10;0.20;;;9.20;99.90;;;;;;6144305;23;20465;-78
2022/02/15 12:11:33;;;;;;;1.98;0.30;;;9.30;99.90;;;;;;6142479;23;20261;-77
2022/02/15 12:14:12;;;;;;;3.60;0.50;;;9.30;99.90;;;;;;6143810;23;20316;-77
2022/02/15 12:16:42;;;;;;;3.72;0.60;;;9.40;99.90;;;;;;6141748;23;20071;-78
2022/02/15 12:19:08;;;;;;;5.18;0.77;;;9.20;99.90;;;;;;6118284;23;20022;-78
2022/02/15 12:21:41;;;;;;;4.30;0.80;;;9.30;99.90;;;;;;6141894;23;20013;-80
2022/02/15 12:24:07;;;;;;;4.95;0.90;;;9.30;99.90;;;;;;6142673;23;20014;-78
2022/02/15 12:26:45;;;;;;;4.28;0.93;;;9.30;99.90;;;;;;6119812;23;20017;-78
2022/02/15 12:29:12;;;;;;;2.30;0.88;;;9.10;99.90;;;;;;6144255;23;20403;-78
2022/02/15 12:31:38;;;;;;;3.70;0.88;;;9.00;99.90;;;;;;6118325;23;20017;-77
2022/02/15 12:34:06;;;;;;;2.95;0.70;;;9.30;99.90;;;;;;6132005;23;20010;-78
2022/02/15 12:36:33;;;;;;;3.38;0.98;;;9.60;99.90;;;;;;6127241;23;20721;-78
2022/02/15 12:38:59;;;;;;;3.50;0.88;;;9.50;99.90;;;;;;6143398;23;20010;-80
2022/02/15 12:41:25;;;;;;;3.95;0.98;;;9.30;99.90;;;;;;6142140;23;20338;-78
2022/02/15 12:43:59;;;;;;;5.05;1.02;;;9.40;99.90;;;;;;6079189;23;20109;-79
2022/02/15 12:46:26;;;;;;;3.15;0.70;;;9.40;99.90;;;;;;6127036;23;20017;-77
2022/02/15 12:48:52;;;;;;;3.65;0.60;;;9.30;99.90;;;;;;6110354;23;20010;-78
2022/02/15 12:51:21;;;;;;;2.83;0.40;;;9.50;99.90;;;;;;6122324;23;20041;-78
2022/02/15 12:53:51;;;;;;;1.33;0.45;;;9.70;99.90;;;;;;6120197;23;20088;-78
2022/02/15 12:56:20;;;;;;;;;;;9.60;99.90;;;;;;6146408;23;20096;-78
2022/02/15 12:58:50;;;;;;;3.78;0.50;;;9.80;99.90;;;;;;6145444;23;20047;-78
2022/02/15 13:01:16;;;;;;;2.85;0.57;;;9.60;99.90;;;;;;6120774;23;20009;-80
2022/02/15 13:03:51;;;;;;;1.92;0.30;;;9.50;99.90;;;;;;6120462;23;20092;-79
2022/02/15 13:06:23;;;;;;;2.42;0.38;;;9.30;99.90;;;;;;6098281;23;20100;-78
2022/02/15 13:08:55;;;;;;;3.95;0.40;;;9.30;99.90;;;;;;6120962;23;20037;-77